Flight Track Log - Related Links

Times and Time Zones

All times are in EDT time to prevent confusion due to time zone crossing. See the KLM1366 flight status page for this flight to view local times or setup timezone preferences in your user account.

Time Position Orientation Groundspeed Altitude Reporting Facility
EDT Latitude Longitude Course Direction KTS MPH feet Rate Location/Type
Sat 11:19:32 AM 52.2701 19.5090 276° West  Level Estimated
Sat 11:20:32 AM 52.2783 19.3823 276° West  Level Estimated
Sat 11:21:32 AM 52.2864 19.2555 276° West  Level Estimated
Sat 11:22:32 AM 52.2943 19.1287 276° West  Level Estimated
Sat 11:23:32 AM 52.3021 19.0018 276° West  Level Estimated
Sat 11:24:32 AM 52.3098 18.8749 276° West  Level Estimated
Sat 11:25:32 AM 52.3173 18.7479 275° West  Level Estimated
Sat 11:26:32 AM 52.3247 18.6209 275° West  Level Estimated
Sat 11:27:32 AM 52.3319 18.4939 275° West  Level Estimated
Sat 11:28:32 AM 52.3390 18.3668 275° West  Level Estimated
Sat 11:29:32 AM 52.3460 18.2397 275° West  Level Estimated
Sat 11:30:32 AM 52.3529 18.1125 275° West  Level Estimated
Sat 11:31:32 AM 52.3596 17.9853 275° West  Level Estimated
Sat 11:32:32 AM 52.3661 17.8580 275° West  Level Estimated
Sat 11:33:32 AM 52.3726 17.7307 275° West  Level Estimated
Sat 11:34:32 AM 52.3788 17.6034 275° West  Level Estimated
Sat 11:35:32 AM 52.3850 17.4761 274° West  Level Estimated
Sat 11:36:32 AM 52.3910 17.3487 274° West  Level Estimated
Sat 11:37:32 AM 52.3969 17.2213 274° West  Level Estimated
Sat 11:38:32 AM 52.4027 17.0938 274° West  Level Estimated
Sat 11:39:32 AM 52.4083 16.9663 274° West  Level Estimated
Sat 11:40:32 AM 52.4137 16.8388 274° West  Level Estimated
Sat 11:41:32 AM 52.4199 16.6915 274° West  Level Estimated
Sat 11:42:32 AM 52.4259 16.5442 274° West  Level Estimated
Sat 11:43:32 AM 52.4316 16.3969 274° West  Level Estimated
Sat 11:44:32 AM 52.4372 16.2495 274° West  Level Estimated
Sat 11:45:32 AM 52.4427 16.1021 273° West  Level Estimated
Sat 11:46:32 AM 52.4479 15.9546 273° West  Level Estimated
Sat 11:47:32 AM 52.4529 15.8071 273° West  Level Estimated
Sat 11:48:32 AM 52.4578 15.6596 273° West  Level Estimated
Sat 11:49:32 AM 52.4625 15.5120 273° West  Level Estimated
Sat 11:50:32 AM 52.4670 15.3644 273° West  Level Estimated
Sat 11:51:32 AM 52.4713 15.2168 273° West  Level Estimated
Sat 11:52:32 AM 52.4754 15.0691 273° West  Level Estimated
Sat 11:53:32 AM 52.4794 14.9215 272° West  Level Estimated
Sat 11:54:32 AM 52.4832 14.7738 272° West  Level Estimated
Sat 11:55:32 AM 52.4867 14.6260 272° West  Level Estimated
Sat 11:56:32 AM 52.4901 14.4783 272° West  Level Estimated
Sat 11:57:32 AM 52.4933 14.3305 272° West  Level Estimated
Sat 11:58:32 AM 52.4963 14.1827 272° West  Level Estimated
Sat 11:59:32 AM 52.4992 14.0349 272° West  Level Estimated
Sat 12:00:32 PM 52.5019 13.8871 272° West  Level Estimated
Sat 12:01:32 PM 52.5043 13.7392 272° West  Level Estimated
Sat 12:02:32 PM 52.5066 13.5914 271° West  Level Estimated
Sat 12:03:32 PM 52.5087 13.4435 271° West  Level Estimated
Sat 12:04:32 PM 52.5106 13.2956 271° West  Level Estimated
Sat 12:05:32 PM 52.5124 13.1477 271° West  Level Estimated
Sat 12:06:32 PM 52.5139 12.9998 271° West  Level Estimated
Sat 12:07:32 PM 52.5153 12.8519 271° West  Level Estimated
Sat 12:08:32 PM 52.5165 12.7039 271° West  Level Estimated
Sat 12:09:32 PM 52.5175 12.5560 271° West  Level Estimated
Sat 12:10:32 PM 52.5183 12.4080 270° West  Level Estimated
Sat 12:11:32 PM 52.5189 12.2601 270° West  Level Estimated
Sat 12:12:32 PM 52.5194 12.1121 270° West  Level Estimated
Sat 12:13:32 PM 52.5196 11.9642 270° West  Level Estimated
Sat 12:14:32 PM 52.5197 11.8162 270° West  Level Estimated
Sat 12:15:32 PM 52.5196 11.6683 270° West  Level Estimated
Sat 12:16:32 PM 52.5193 11.5203 270° West  Level Estimated
Sat 12:17:32 PM 52.5188 11.3723 270° West  Level Estimated
Sat 12:18:32 PM 52.5182 11.2244 270° West  Level Estimated
Sat 12:19:32 PM 52.5173 11.0764 269° West  Level Estimated
Sat 12:20:32 PM 52.5163 10.9285 269° West  Level Estimated
Sat 12:21:32 PM 52.5151 10.7806 269° West  Level Estimated
Sat 12:22:32 PM 52.5137 10.6326 269° West  Level Estimated
Sat 12:23:32 PM 52.5121 10.4847 269° West  Level Estimated
Sat 12:24:32 PM 52.5103 10.3368 269° West  Level Estimated
Sat 12:25:32 PM 52.5084 10.1889 269° West  Level Estimated
Sat 12:26:32 PM 52.5062 10.0411 269° West  Level Estimated
Sat 12:27:32 PM 52.5039 9.8932 268° West  Level Estimated
Sat 12:28:32 PM 52.5014 9.7453 268° West  Level Estimated
Sat 12:29:32 PM 52.4987 9.5975 268° West  Level Estimated
Sat 12:30:32 PM 52.4958 9.4497 268° West  Level Estimated
Sat 12:31:32 PM 52.4928 9.3019 268° West  Level Estimated
Sat 12:32:32 PM 52.4895 9.1542 268° West  Level Estimated
Sat 12:33:32 PM 52.4861 9.0064 268° West  Level Estimated
Sat 12:34:32 PM 52.4825 8.8587 268° West  Level Estimated
Sat 12:35:32 PM 52.4787 8.7110 268° West  Level Estimated
Sat 12:36:32 PM 52.4747 8.5633 267° West  Level Estimated
Sat 12:37:32 PM 52.4706 8.4157 267° West  Level Estimated
Sat 12:38:32 PM 52.4662 8.2681 267° West  Level Estimated
Sat 12:39:32 PM 52.4617 8.1205 267° West  Level Estimated
Sat 12:40:32 PM 52.4570 7.9729 267° West  Level Estimated
Sat 12:41:32 PM 52.4521 7.8254 267° West  Level Estimated
Sat 12:42:32 PM 52.4470 7.6779 267° West  Level Estimated
Sat 12:43:32 PM 52.4413 7.5189 267° West  Level Estimated
Sat 12:44:32 PM 52.4354 7.3599 266° West  Level Estimated
Sat 12:45:32 PM 52.4293 7.2010 266° West  Level Estimated
Sat 12:46:32 PM 52.4230 7.0421 266° West  Level Estimated
Sat 12:47:32 PM 52.4164 6.8833 266° West  Level Estimated
Sat 12:48:32 PM 52.4097 6.7245 266° West  Level Estimated
Sat 12:49:32 PM 52.4027 6.5657 266° West  Level Estimated
Sat 12:50:32 PM 52.3956 6.4070 266° West  Level Estimated
Sat 12:51:32 PM 52.3882 6.2484 266° West  Level Estimated
Sat 12:52:32 PM 52.3806 6.0898 265° West  Level Estimated
Sat 12:53:32 PM 52.3728 5.9313 265° West  Level Estimated
Sat 12:54:32 PM 52.3647 5.7728 265° West  Level Estimated
Sat 12:55:32 PM 52.3565 5.6144 265° West  Level Estimated
Sat 12:56:32 PM 52.3480 5.4560 265° West  Level Estimated

Login

Don't have an account? Register now (free) for customized features, flight alerts, and more!